Time,TemperatureF,DewpointF,PressureIn,WindDirection,WindDirectionDegrees,WindSpeedMPH,WindSpeedGustMPH,Humidity,HourlyPrecipIn,Conditions,Clouds,dailyrainin,SoftwareType,DateUTC
2013-04-03 00:07:00,30.9,20.0,30.37,North,9,1.0,3.0,64,0.00,,,0.00,weatherlink.com 1.10,2013-04-03 05:07:00,
2013-04-03 00:22:00,30.5,20.0,30.37,North,9,2.0,3.0,65,0.00,,,0.00,weatherlink.com 1.10,2013-04-03 05:22:00,
2013-04-03 00:37:00,30.0,20.0,30.37,North,9,0.0,2.0,66,0.00,,,0.00,weatherlink.com 1.10,2013-04-03 05:37:00,
2013-04-03 00:52:00,29.7,20.0,30.38,North,9,1.0,2.0,68,0.00,,,0.00,weatherlink.com 1.10,2013-04-03 05:52:00,
2013-04-03 01:07:00,29.7,20.0,30.38,North,5,3.0,4.0,67,0.00,,,0.00,weatherlink.com 1.10,2013-04-03 06:07:00,
2013-04-03 01:22:00,29.6,19.0,30.38,North,5,1.0,3.0,66,0.00,,,0.00,weatherlink.com 1.10,2013-04-03 06:22:00,
2013-04-03 01:37:00,29.4,19.0,30.38,North,5,2.0,3.0,66,0.00,,,0.00,weatherlink.com 1.10,2013-04-03 06:37:00,
2013-04-03 01:52:00,29.2,19.0,30.39,North,5,0.0,2.0,67,0.00,,,0.00,weatherlink.com 1.10,2013-04-03 06:52:00,
2013-04-03 02:07:00,28.8,19.0,30.39,North,5,2.0,4.0,67,0.00,,,0.00,weatherlink.com 1.10,2013-04-03 07:07:00,
2013-04-03 02:22:00,28.5,19.0,30.38,North,5,2.0,4.0,68,0.00,,,0.00,weatherlink.com 1.10,2013-04-03 07:22:00,
2013-04-03 02:37:00,28.3,19.0,30.38,North,5,0.0,3.0,67,0.00,,,0.00,weatherlink.com 1.10,2013-04-03 07:37:00,
2013-04-03 02:52:00,27.9,19.0,30.38,North,5,0.0,2.0,68,0.00,,,0.00,weatherlink.com 1.10,2013-04-03 07:52:00,
2013-04-03 03:07:00,27.6,19.0,30.37,North,5,3.0,4.0,69,0.00,,,0.00,weatherlink.com 1.10,2013-04-03 08:07:00,
2013-04-03 03:22:00,26.8,19.0,30.37,North,5,2.0,3.0,73,0.00,,,0.00,weatherlink.com 1.10,2013-04-03 08:22:00,
2013-04-03 03:37:00,26.9,19.0,30.38,North,5,1.0,2.0,72,0.00,,,0.00,weatherlink.com 1.10,2013-04-03 08:37:00,
2013-04-03 03:52:00,26.5,19.0,30.38,North,5,1.0,2.0,72,0.00,,,0.00,weatherlink.com 1.10,2013-04-03 08:52:00,
2013-04-03 04:07:00,25.9,19.0,30.39,North,5,1.0,3.0,76,0.00,,,0.00,weatherlink.com 1.10,2013-04-03 09:07:00,
2013-04-03 04:22:00,25.9,19.0,30.39,North,5,1.0,2.0,76,0.00,,,0.00,weatherlink.com 1.10,2013-04-03 09:22:00,
2013-04-03 04:37:00,25.4,20.0,30.39,North,5,1.0,2.0,79,0.00,,,0.00,weatherlink.com 1.10,2013-04-03 09:37:00,
2013-04-03 04:52:00,25.6,20.0,30.39,North,5,2.0,2.0,79,0.00,,,0.00,weatherlink.com 1.10,2013-04-03 09:52:00,
2013-04-03 05:07:00,25.2,20.0,30.39,North,5,1.0,2.0,79,0.00,,,0.00,weatherlink.com 1.10,2013-04-03 10:07:00,
2013-04-03 05:22:00,24.9,19.0,30.39,North,5,1.0,2.0,78,0.00,,,0.00,weatherlink.com 1.10,2013-04-03 10:22:00,
2013-04-03 05:37:00,24.7,19.0,30.39,North,5,3.0,4.0,79,0.00,,,0.00,weatherlink.com 1.10,2013-04-03 10:37:00,
2013-04-03 05:53:00,24.6,19.0,30.39,North,5,3.0,4.0,78,0.00,,,0.00,weatherlink.com 1.10,2013-04-03 10:53:00,
2013-04-03 06:07:00,24.6,19.0,30.40,North,5,1.0,4.0,78,0.00,,,0.00,weatherlink.com 1.10,2013-04-03 11:07:00,
2013-04-03 06:22:00,24.4,18.0,30.41,North,5,0.0,2.0,77,0.00,,,0.00,weatherlink.com 1.10,2013-04-03 11:22:00,
2013-04-03 06:37:00,24.2,18.0,30.42,North,5,1.0,4.0,78,0.00,,,0.00,weatherlink.com 1.10,2013-04-03 11:37:00,
2013-04-03 06:52:00,24.4,18.0,30.43,North,5,1.0,3.0,77,0.00,,,0.00,weatherlink.com 1.10,2013-04-03 11:52:00,
2013-04-03 07:07:00,24.4,18.0,30.44,North,5,1.0,3.0,76,0.00,,,0.00,weatherlink.com 1.10,2013-04-03 12:07:00,
2013-04-03 07:22:00,24.6,18.0,30.44,North,5,3.0,3.0,76,0.00,,,0.00,weatherlink.com 1.10,2013-04-03 12:22:00,
2013-04-03 07:37:00,25.4,19.0,30.44,North,5,3.0,4.0,77,0.00,,,0.00,weatherlink.com 1.10,2013-04-03 12:37:00,
2013-04-03 07:52:00,26.9,20.0,30.45,NNE,22,3.0,6.0,75,0.00,,,0.00,weatherlink.com 1.10,2013-04-03 12:52:00,
2013-04-03 08:08:00,28.7,20.0,30.45,NE,50,2.0,7.0,70,0.00,,,0.00,weatherlink.com 1.10,2013-04-03 13:08:00,
2013-04-03 08:23:00,30.1,20.0,30.47,North,11,2.0,9.0,65,0.00,,,0.00,weatherlink.com 1.10,2013-04-03 13:23:00,
2013-04-03 08:38:00,31.2,20.0,30.47,NNE,24,4.0,7.0,64,0.00,,,0.00,weatherlink.com 1.10,2013-04-03 13:38:00,
2013-04-03 08:53:00,32.6,20.0,30.46,NNE,27,3.0,6.0,61,0.00,,,0.00,weatherlink.com 1.10,2013-04-03 13:53:00,
2013-04-03 09:08:00,34.1,21.0,30.47,ESE,119,0.0,7.0,58,0.00,,,0.00,weatherlink.com 1.10,2013-04-03 14:08:00,
2013-04-03 09:23:00,35.6,20.0,30.46,East,80,3.0,9.0,54,0.00,,,0.00,weatherlink.com 1.10,2013-04-03 14:23:00,
2013-04-03 09:38:00,37.5,21.0,30.46,NE,52,9.0,10.0,51,0.00,,,0.00,weatherlink.com 1.10,2013-04-03 14:38:00,
2013-04-03 10:08:00,40.0,18.0,30.46,ENE,69,8.0,11.0,41,0.00,,,0.00,weatherlink.com 1.10,2013-04-03 15:08:00,
2013-04-03 10:23:00,40.9,18.0,30.45,NE,55,3.0,8.0,39,0.00,,,0.00,weatherlink.com 1.10,2013-04-03 15:23:00,
2013-04-03 10:38:00,41.7,18.0,30.46,East,82,2.0,11.0,38,0.00,,,0.00,weatherlink.com 1.10,2013-04-03 15:38:00,
2013-04-03 10:53:00,41.9,16.0,30.45,NNE,32,4.0,12.0,35,0.00,,,0.00,weatherlink.com 1.10,2013-04-03 15:53:00,
2013-04-03 11:08:00,42.8,16.0,30.45,North,5,5.0,9.0,34,0.00,,,0.00,weatherlink.com 1.10,2013-04-03 16:08:00,
2013-04-03 11:23:00,42.7,15.0,30.44,East,82,7.0,14.0,33,0.00,,,0.00,weatherlink.com 1.10,2013-04-03 16:23:00,
2013-04-03 11:38:00,44.7,16.0,30.45,East,79,3.0,9.0,31,0.00,,,0.00,weatherlink.com 1.10,2013-04-03 16:38:00,
2013-04-03 11:53:00,45.4,15.0,30.45,ENE,76,3.0,10.0,30,0.00,,,0.00,weatherlink.com 1.10,2013-04-03 16:53:00,
2013-04-03 12:08:00,45.9,16.0,30.44,SSE,154,6.0,10.0,30,0.00,,,0.00,weatherlink.com 1.10,2013-04-03 17:08:00,
2013-04-03 12:23:00,46.5,17.0,30.43,NE,38,3.0,8.0,31,0.00,,,0.00,weatherlink.com 1.10,2013-04-03 17:23:00,
2013-04-03 12:39:00,47.1,16.0,30.42,East,90,3.0,9.0,29,0.00,,,0.00,weatherlink.com 1.10,2013-04-03 17:39:00,
2013-04-03 12:54:00,47.2,15.0,30.41,NE,39,8.0,9.0,27,0.00,,,0.00,weatherlink.com 1.10,2013-04-03 17:54:00,
2013-04-03 13:09:00,47.4,15.0,30.40,NE,40,5.0,14.0,27,0.00,,,0.00,weatherlink.com 1.10,2013-04-03 18:09:00,
2013-04-03 13:23:00,47.7,16.0,30.40,NE,38,3.0,11.0,28,0.00,,,0.00,weatherlink.com 1.10,2013-04-03 18:23:00,
2013-04-03 13:38:00,49.0,17.0,30.39,East,98,2.0,8.0,28,0.00,,,0.00,weatherlink.com 1.10,2013-04-03 18:38:00,
2013-04-03 13:54:00,49.3,17.0,30.39,ESE,103,3.0,9.0,28,0.00,,,0.00,weatherlink.com 1.10,2013-04-03 18:54:00,
2013-04-03 14:24:00,50.7,18.0,30.38,East,84,2.0,10.0,28,0.00,,,0.00,weatherlink.com 1.10,2013-04-03 19:24:00,
2013-04-03 14:39:00,49.9,15.0,30.37,ESE,105,4.0,9.0,25,0.00,,,0.00,weatherlink.com 1.10,2013-04-03 19:39:00,
2013-04-03 14:54:00,50.7,17.0,30.37,SSE,153,1.0,8.0,26,0.00,,,0.00,weatherlink.com 1.10,2013-04-03 19:54:00,
2013-04-03 15:09:00,51.2,16.0,30.37,SE,135,2.0,12.0,25,0.00,,,0.00,weatherlink.com 1.10,2013-04-03 20:09:00,
2013-04-03 15:24:00,50.7,17.0,30.36,NE,52,3.0,9.0,26,0.00,,,0.00,weatherlink.com 1.10,2013-04-03 20:24:00,
2013-04-03 15:39:00,51.0,16.0,30.36,East,95,3.0,12.0,25,0.00,,,0.00,weatherlink.com 1.10,2013-04-03 20:39:00,
2013-04-03 15:54:00,51.9,17.0,30.36,SE,133,2.0,9.0,25,0.00,,,0.00,weatherlink.com 1.10,2013-04-03 20:54:00,
2013-04-03 16:24:00,52.2,16.0,30.35,East,85,5.0,12.0,24,0.00,,,0.00,weatherlink.com 1.10,2013-04-03 21:24:00,
2013-04-03 16:39:00,52.0,17.0,30.35,East,99,2.0,8.0,25,0.00,,,0.00,weatherlink.com 1.10,2013-04-03 21:39:00,
2013-04-03 16:54:00,51.7,16.0,30.35,SE,140,3.0,10.0,24,0.00,,,0.00,weatherlink.com 1.10,2013-04-03 21:54:00,
2013-04-03 17:09:00,51.3,16.0,30.34,ESE,111,5.0,8.0,25,0.00,,,0.00,weatherlink.com 1.10,2013-04-03 22:09:00,
2013-04-03 17:24:00,50.3,16.0,30.34,East,90,1.0,9.0,26,0.00,,,0.00,weatherlink.com 1.10,2013-04-03 22:24:00,
2013-04-03 17:39:00,50.0,15.0,30.34,ESE,106,1.0,11.0,25,0.00,,,0.00,weatherlink.com 1.10,2013-04-03 22:39:00,
2013-04-03 17:54:00,50.4,16.0,30.34,ESE,114,7.0,8.0,25,0.00,,,0.00,weatherlink.com 1.10,2013-04-03 22:54:00,
2013-04-03 18:09:00,50.2,15.0,30.34,SE,124,2.0,8.0,25,0.00,,,0.00,weatherlink.com 1.10,2013-04-03 23:09:00,
2013-04-03 18:39:00,48.1,18.0,30.33,East,92,0.0,6.0,30,0.00,,,0.00,weatherlink.com 1.10,2013-04-03 23:39:00,
2013-04-03 18:54:00,47.2,17.0,30.33,ESE,120,0.0,4.0,30,0.00,,,0.00,weatherlink.com 1.10,2013-04-03 23:54:00,
2013-04-03 19:24:00,45.7,19.0,30.33,ENE,78,0.0,2.0,34,0.00,,,0.00,weatherlink.com 1.10,2013-04-04 00:24:00,
2013-04-03 19:39:00,44.7,19.0,30.33,ENE,78,0.0,1.0,36,0.00,,,0.00,weatherlink.com 1.10,2013-04-04 00:39:00,
2013-04-03 19:54:00,43.4,19.0,30.32,ENE,78,0.0,0.0,37,0.00,,,0.00,weatherlink.com 1.10,2013-04-04 00:54:00,
2013-04-03 20:09:00,42.3,18.0,30.32,ENE,78,0.0,0.0,38,0.00,,,0.00,weatherlink.com 1.10,2013-04-04 01:09:00,
2013-04-03 20:39:00,41.0,18.0,30.32,ENE,78,0.0,0.0,40,0.00,,,0.00,weatherlink.com 1.10,2013-04-04 01:39:00,
2013-04-03 20:54:00,40.6,18.0,30.32,ENE,78,0.0,0.0,40,0.00,,,0.00,weatherlink.com 1.10,2013-04-04 01:54:00,
2013-04-03 21:09:00,40.1,18.0,30.33,ENE,78,0.0,0.0,41,0.00,,,0.00,weatherlink.com 1.10,2013-04-04 02:09:00,
2013-04-03 21:24:00,39.4,18.0,30.33,ENE,78,0.0,0.0,42,0.00,,,0.00,weatherlink.com 1.10,2013-04-04 02:24:00,
2013-04-03 21:38:00,39.0,19.0,30.34,ENE,78,0.0,0.0,44,0.00,,,0.00,weatherlink.com 1.10,2013-04-04 02:38:00,
2013-04-03 21:54:00,39.0,19.0,30.33,ENE,78,0.0,0.0,44,0.00,,,0.00,weatherlink.com 1.10,2013-04-04 02:54:00,
2013-04-03 22:24:00,38.6,19.0,30.33,ENE,78,0.0,1.0,46,0.00,,,0.00,weatherlink.com 1.10,2013-04-04 03:24:00,
2013-04-03 22:39:00,38.6,19.0,30.33,ENE,78,0.0,0.0,46,0.00,,,0.00,weatherlink.com 1.10,2013-04-04 03:39:00,
2013-04-03 23:09:00,37.6,19.0,30.32,ENE,78,0.0,1.0,48,0.00,,,0.00,weatherlink.com 1.10,2013-04-04 04:09:00,
2013-04-03 23:24:00,37.8,21.0,30.32,ENE,78,0.0,1.0,50,0.00,,,0.00,weatherlink.com 1.10,2013-04-04 04:24:00,
2013-04-03 23:39:00,37.6,20.0,30.31,ENE,78,0.0,1.0,50,0.00,,,0.00,weatherlink.com 1.10,2013-04-04 04:39:00,
2013-04-03 23:54:00,37.7,20.0,30.31,ENE,78,0.0,1.0,50,0.00,,,0.00,weatherlink.com 1.10,2013-04-04 04:54:00,